createdAt,value
2022-10-11T00:00:54.326Z,1004.4
2022-10-11T00:01:55.215Z,1004.4
2022-10-11T00:02:57.199Z,1004.4
2022-10-11T00:03:58.221Z,1004.4
2022-10-11T00:05:00.238Z,1004.4
2022-10-11T00:06:02.596Z,1004.5
2022-10-11T00:07:04.198Z,1004.5
2022-10-11T00:08:06.247Z,1004.4
2022-10-11T00:09:07.179Z,1004.4
2022-10-11T00:10:08.299Z,1004.5
2022-10-11T00:11:10.240Z,1004.5
2022-10-11T00:12:12.259Z,1004.5
2022-10-11T00:13:14.639Z,1004.5
2022-10-11T00:14:16.231Z,1004.5
2022-10-11T00:15:18.179Z,1004.5
2022-10-11T00:16:19.207Z,1004.5
2022-10-11T00:17:20.119Z,1004.5
2022-10-11T00:18:21.159Z,1004.5
2022-10-11T00:19:22.159Z,1004.5
2022-10-11T00:20:23.160Z,1004.5
2022-10-11T00:21:24.278Z,1004.5
2022-10-11T00:22:25.267Z,1004.5
2022-10-11T00:23:26.206Z,1004.5
2022-10-11T00:24:27.227Z,1004.5
2022-10-11T00:25:28.138Z,1004.6
2022-10-11T00:26:29.158Z,1004.5
2022-10-11T00:27:30.200Z,1004.5
2022-10-11T00:28:31.250Z,1004.7
2022-10-11T00:29:32.179Z,1004.6
2022-10-11T00:30:33.199Z,1004.6
2022-10-11T00:31:35.734Z,1004.6
2022-10-11T00:32:35.261Z,1004.6
2022-10-11T00:33:36.259Z,1004.6
2022-10-11T00:34:37.327Z,1004.7
2022-10-11T00:35:39.198Z,1004.7
2022-10-11T00:36:40.246Z,1004.6
2022-10-11T00:37:41.328Z,1004.6
2022-10-11T00:38:43.160Z,1004.7
2022-10-11T00:39:45.318Z,1004.7
2022-10-11T00:40:47.220Z,1004.7
2022-10-11T00:41:48.224Z,1004.6
2022-10-11T00:42:49.218Z,1004.6
2022-10-11T00:43:50.262Z,1004.6
2022-10-11T00:44:51.238Z,1004.6
2022-10-11T00:45:52.247Z,1004.6
2022-10-11T00:46:55.807Z,1004.6
2022-10-11T00:47:54.218Z,1004.6
2022-10-11T00:48:55.235Z,1004.7
2022-10-11T00:49:56.258Z,1004.7
2022-10-11T00:50:57.218Z,1004.6
2022-10-11T00:51:58.216Z,1004.6
2022-10-11T00:52:59.158Z,1004.7
2022-10-11T00:54:00.244Z,1004.7
2022-10-11T00:55:01.413Z,1004.7
2022-10-11T00:56:03.527Z,1004.7
2022-10-11T00:57:04.283Z,1004.7
2022-10-11T00:58:05.298Z,1004.7
2022-10-11T00:59:07.258Z,1004.7
2022-10-11T01:00:09.287Z,1004.7
2022-10-11T01:01:10.348Z,1004.7
2022-10-11T01:02:12.323Z,1004.7
2022-10-11T01:03:14.238Z,1004.7
2022-10-11T01:04:16.278Z,1004.7
2022-10-11T01:05:32.366Z,1004.7
2022-10-11T01:06:20.278Z,1004.8
2022-10-11T01:07:22.331Z,1004.8
2022-10-11T01:08:24.299Z,1004.7
2022-10-11T01:09:26.259Z,1004.8
2022-10-11T01:10:27.339Z,1004.7
2022-10-11T01:11:28.219Z,1004.7
2022-10-11T01:12:29.210Z,1004.7
2022-10-11T01:13:30.179Z,1004.8
2022-10-11T01:14:31.260Z,1004.8
2022-10-11T01:15:32.260Z,1004.8
2022-10-11T01:16:33.241Z,1004.8
2022-10-11T01:17:34.301Z,1004.8
2022-10-11T01:18:35.220Z,1004.8
2022-10-11T01:19:36.226Z,1004.8
2022-10-11T01:20:37.240Z,1004.8
2022-10-11T01:21:38.287Z,1004.8
2022-10-11T01:22:40.188Z,1004.8
2022-10-11T01:23:41.221Z,1004.8
2022-10-11T01:24:42.258Z,1004.8
2022-10-11T01:25:43.358Z,1004.8
2022-10-11T01:26:45.320Z,1004.8
2022-10-11T01:27:47.180Z,1004.8
2022-10-11T01:28:48.257Z,1004.8
2022-10-11T01:29:49.179Z,1004.8
2022-10-11T01:30:50.259Z,1004.9
2022-10-11T01:31:51.238Z,1004.8
2022-10-11T01:32:52.291Z,1004.8
2022-10-11T01:33:53.199Z,1004.8
2022-10-11T01:34:54.163Z,1004.9
2022-10-11T01:35:55.229Z,1004.9
2022-10-11T01:36:56.230Z,1004.9
2022-10-11T01:37:57.247Z,1004.9
2022-10-11T01:38:58.364Z,1004.9
2022-10-11T01:40:00.287Z,1004.8
2022-10-11T01:41:02.252Z,1004.9
2022-10-11T01:42:03.298Z,1004.9
2022-10-11T01:43:04.274Z,1004.9
2022-10-11T01:44:06.338Z,1004.9
2022-10-11T01:45:08.338Z,1004.9
2022-10-11T01:46:10.286Z,1005
2022-10-11T01:47:12.259Z,1005
2022-10-11T01:48:14.283Z,1004.3
2022-10-11T01:49:16.560Z,1004.9
2022-10-11T01:50:18.298Z,1005
2022-10-11T01:51:20.222Z,1005
2022-10-11T01:52:21.267Z,1005
2022-10-11T01:53:22.261Z,1005
2022-10-11T01:54:23.351Z,1005.1
2022-10-11T01:55:24.364Z,1005
2022-10-11T01:56:26.261Z,1005
2022-10-11T01:57:27.243Z,1005.1
2022-10-11T01:58:28.198Z,1005.1
2022-10-11T01:59:30.340Z,1005.1
2022-10-11T02:03:51.260Z,1005.2
2022-10-11T02:04:52.277Z,1005.2
2022-10-11T02:05:54.274Z,1005.2
2022-10-11T02:06:55.255Z,1005.3
2022-10-11T02:07:56.242Z,1005.3
2022-10-11T02:08:57.253Z,1005.3
2022-10-11T02:09:59.314Z,1005.3
2022-10-11T02:11:01.277Z,1005.2
2022-10-11T02:12:02.284Z,1005.2
2022-10-11T02:13:04.235Z,1005.3
2022-10-11T02:14:05.315Z,1005.2
2022-10-11T02:15:07.335Z,1005.3
2022-10-11T02:16:08.687Z,1005.3
2022-10-11T02:17:09.254Z,1005.3
2022-10-11T02:18:10.255Z,1005.3
2022-10-11T02:19:11.287Z,1005.3
2022-10-11T02:20:12.303Z,1005.3
2022-10-11T02:21:13.216Z,1005.3
2022-10-11T02:22:14.235Z,1005.3
2022-10-11T02:23:15.794Z,1005.3
2022-10-11T02:24:17.235Z,1005.3
2022-10-11T02:25:18.354Z,1005.3
2022-10-11T02:26:19.198Z,1005.3
2022-10-11T02:27:20.241Z,1005.4
2022-10-11T02:28:21.306Z,1005.4
2022-10-11T02:29:22.184Z,1005.4
2022-10-11T02:30:23.375Z,1005.4
2022-10-11T02:31:25.314Z,1005.4
2022-10-11T02:32:27.255Z,1005.5
2022-10-11T02:33:28.254Z,1005.5
2022-10-11T02:34:30.318Z,1005.5
2022-10-11T02:35:32.258Z,1005.5
2022-10-11T02:36:34.276Z,1005.5
2022-10-11T02:37:35.274Z,1005.5
2022-10-11T02:38:36.255Z,1005.5
2022-10-11T02:39:37.314Z,1005.5
2022-10-11T02:40:38.254Z,1005.6
2022-10-11T02:41:39.263Z,1005.6
2022-10-11T02:42:40.255Z,1005.6
2022-10-11T02:43:41.255Z,1005.6
2022-10-11T02:44:42.275Z,1005.6
2022-10-11T02:45:43.336Z,1005.6
2022-10-11T02:46:44.258Z,1005.7
2022-10-11T02:47:45.255Z,1005.7
2022-10-11T02:48:46.295Z,1005.7
2022-10-11T02:49:47.413Z,1005.7
2022-10-11T02:50:48.295Z,1005.7
2022-10-11T02:51:49.294Z,1005.2
2022-10-11T02:52:51.337Z,1005.6
2022-10-11T02:53:52.364Z,1005.7
2022-10-11T02:54:54.302Z,1005.7
2022-10-11T02:55:56.354Z,1005.7
2022-10-11T02:56:57.145Z,1005.8
2022-10-11T02:57:58.323Z,1005.7
2022-10-11T02:59:00.293Z,1005.8
2022-10-11T03:00:02.394Z,1005.8
2022-10-11T03:01:04.313Z,1005.8
2022-10-11T03:02:06.460Z,1005.8
2022-10-11T03:03:08.344Z,1005.8
2022-10-11T03:04:09.314Z,1005.8
2022-10-11T03:05:10.320Z,1005.8
2022-10-11T03:06:11.271Z,1005.8
2022-10-11T03:07:12.275Z,1005.8
2022-10-11T03:08:13.276Z,1005.8
2022-10-11T03:09:14.277Z,1005.9
2022-10-11T03:10:15.274Z,1005.9
2022-10-11T03:11:16.257Z,1005.9
2022-10-11T03:12:17.257Z,1005.9
2022-10-11T03:13:18.665Z,1005.9
2022-10-11T03:14:19.235Z,1005.9
2022-10-11T03:15:20.234Z,1005.9
2022-10-11T03:16:21.322Z,1005.9
2022-10-11T03:17:35.923Z,1005.9
2022-10-11T03:18:24.255Z,1006
2022-10-11T03:19:25.254Z,1006
2022-10-11T03:20:26.319Z,1006
2022-10-11T03:21:27.321Z,1006.1
2022-10-11T03:22:28.294Z,1006.1
2022-10-11T03:23:30.345Z,1006.1
2022-10-11T03:24:32.274Z,1006
2022-10-11T03:25:33.275Z,1006
2022-10-11T03:26:34.334Z,1006
2022-10-11T03:27:35.204Z,1006
2022-10-11T03:28:36.396Z,1006
2022-10-11T03:29:37.297Z,1006.1
2022-10-11T03:30:38.376Z,1006.1
2022-10-11T03:31:39.328Z,1006.1
2022-10-11T03:32:40.297Z,1006.2
2022-10-11T03:33:41.294Z,1006.2
2022-10-11T03:34:42.283Z,1006.2
2022-10-11T03:35:44.348Z,1006.2
2022-10-11T03:36:46.354Z,1006.2
2022-10-11T03:37:48.299Z,1006.2
2022-10-11T03:38:50.354Z,1006.3
2022-10-11T03:39:52.339Z,1006.3
2022-10-11T03:40:54.296Z,1006.3
2022-10-11T03:41:55.294Z,1006.4
2022-10-11T03:42:56.276Z,1006.4
2022-10-11T03:43:58.234Z,1006.4
2022-10-11T03:44:59.359Z,1006.4
2022-10-11T03:46:01.773Z,1006.4
2022-10-11T03:47:03.415Z,1006.4
2022-10-11T03:48:05.322Z,1006.4
2022-10-11T03:49:06.313Z,1006.4
2022-10-11T03:50:07.377Z,1006.4
2022-10-11T03:51:08.380Z,1006.4
2022-10-11T03:52:09.334Z,1005.8
2022-10-11T03:53:10.354Z,1006.3
2022-10-11T03:54:11.335Z,1006.5
2022-10-11T03:55:12.335Z,1006.5
2022-10-11T03:56:13.691Z,1006.5
2022-10-11T03:57:14.315Z,1006.5
2022-10-11T03:58:15.315Z,1006.6
2022-10-11T03:59:16.514Z,1006.6
2022-10-11T04:00:18.355Z,1006.6
2022-10-11T04:01:20.456Z,1006.6
2022-10-11T04:02:22.315Z,1006.7
2022-10-11T04:03:23.370Z,1006.6
2022-10-11T04:04:25.358Z,1006.7
2022-10-11T04:05:27.343Z,1006.6
2022-10-11T04:06:29.399Z,1006.6
2022-10-11T04:07:31.395Z,1006.7
2022-10-11T04:08:33.274Z,1006.7
2022-10-11T04:09:34.295Z,1006.7
2022-10-11T04:10:35.316Z,1006.7
2022-10-11T04:11:36.335Z,1006.6
2022-10-11T04:12:38.345Z,1006.6
2022-10-11T04:13:39.317Z,1006.6
2022-10-11T04:14:40.334Z,1006.6
2022-10-11T04:15:41.358Z,1006.7
2022-10-11T04:16:42.290Z,1006.7
2022-10-11T04:17:43.335Z,1006.7
2022-10-11T04:18:44.277Z,1006.8
2022-10-11T04:19:45.336Z,1006.7
2022-10-11T04:20:46.314Z,1006.8
2022-10-11T04:21:47.306Z,1006.8
2022-10-11T04:22:48.296Z,1006.8
2022-10-11T04:23:49.314Z,1006.8
2022-10-11T04:24:50.355Z,1006.8
2022-10-11T04:25:51.334Z,1006.8
2022-10-11T04:26:52.354Z,1006.9
2022-10-11T04:27:53.368Z,1006.9
2022-10-11T04:28:54.429Z,1006.9
2022-10-11T04:29:56.463Z,1006.9
2022-10-11T04:30:58.375Z,1006.9
2022-10-11T04:32:00.337Z,1006.9
2022-10-11T04:33:01.415Z,1006.9
2022-10-11T04:34:02.357Z,1007
2022-10-11T04:35:04.694Z,1006.9
2022-10-11T04:36:04.652Z,1007
2022-10-11T04:37:05.460Z,1007
2022-10-11T04:38:07.394Z,1007
2022-10-11T04:39:08.316Z,1007
2022-10-11T04:40:09.346Z,1007
2022-10-11T04:41:10.399Z,1007
2022-10-11T04:42:11.354Z,1007
2022-10-11T04:43:12.364Z,1007
2022-10-11T04:44:13.314Z,1007.1
2022-10-11T04:45:14.314Z,1007.1
2022-10-11T04:46:15.318Z,1007.1
2022-10-11T04:47:16.578Z,1007.1
2022-10-11T04:48:18.395Z,1007.1
2022-10-11T04:49:19.323Z,1007.1
2022-10-11T04:50:20.296Z,1007.1
2022-10-11T04:51:21.356Z,1007.2
2022-10-11T04:52:25.656Z,1007.2
2022-10-11T04:53:23.355Z,1007.2
2022-10-11T04:54:24.306Z,1007.2
2022-10-11T04:55:25.402Z,1007.1
2022-10-11T04:56:26.334Z,1007.2
2022-10-11T04:57:27.351Z,1007.2
2022-10-11T04:58:28.292Z,1007.3
2022-10-11T04:59:29.345Z,1007.2
2022-10-11T05:00:31.464Z,1007.2
2022-10-11T05:01:33.431Z,1007.2
2022-10-11T05:02:35.308Z,1007.2
2022-10-11T05:03:36.574Z,1007.2
2022-10-11T05:04:38.455Z,1007.2
2022-10-11T05:05:40.296Z,1007.3
2022-10-11T05:06:41.335Z,1007.3
2022-10-11T05:07:42.393Z,1007.4
2022-10-11T05:08:43.360Z,1007.4
2022-10-11T05:09:44.355Z,1007.4
2022-10-11T05:10:46.423Z,1007.4
2022-10-11T05:11:48.340Z,1007.4
2022-10-11T05:12:49.355Z,1007.4
2022-10-11T05:13:50.402Z,1007.4
2022-10-11T05:14:51.374Z,1007.5
2022-10-11T05:15:52.359Z,1007.5
2022-10-11T05:16:53.375Z,1007.5
2022-10-11T05:17:54.362Z,1007.5
2022-10-11T05:18:56.414Z,1007.5
2022-10-11T05:19:58.356Z,1007.5
2022-10-11T05:21:00.355Z,1007.6
2022-10-11T05:22:01.435Z,1007.6
2022-10-11T05:23:02.385Z,1007.6
2022-10-11T05:24:03.378Z,1007.6
2022-10-11T05:25:04.422Z,1007.6
2022-10-11T05:26:05.757Z,1007.6
2022-10-11T05:27:06.395Z,1007.6
2022-10-11T05:28:07.473Z,1007.6
2022-10-11T05:29:08.483Z,1007.7
2022-10-11T05:30:10.416Z,1007.7
2022-10-11T05:31:11.464Z,1007.7
2022-10-11T05:32:13.375Z,1007.7
2022-10-11T05:33:15.480Z,1007.8
2022-10-11T05:34:17.376Z,1007.7
2022-10-11T05:35:18.383Z,1007.7
2022-10-11T05:36:19.330Z,1007.7
2022-10-11T05:37:20.403Z,1007.8
2022-10-11T05:38:21.442Z,1007.7
2022-10-11T05:39:22.343Z,1007.7
2022-10-11T05:40:24.338Z,1007.8
2022-10-11T05:41:25.382Z,1007.8
2022-10-11T05:42:26.415Z,1007.8
2022-10-11T05:43:27.375Z,1007.8
2022-10-11T05:44:28.369Z,1007.9
2022-10-11T05:45:29.310Z,1007.9
2022-10-11T05:46:30.395Z,1008
2022-10-11T05:47:31.374Z,1007.9
2022-10-11T05:48:32.338Z,1008
2022-10-11T05:49:33.364Z,1008
2022-10-11T05:50:34.415Z,1008
2022-10-11T05:51:36.378Z,1008
2022-10-11T05:52:37.349Z,1008.1
2022-10-11T05:53:38.420Z,1008.1
2022-10-11T05:54:40.315Z,1008.1
2022-10-11T05:55:41.365Z,1008.1
2022-10-11T05:56:42.396Z,1008.2
2022-10-11T05:57:43.342Z,1008.2
2022-10-11T05:58:45.403Z,1008.2
2022-10-11T05:59:47.395Z,1008.2
2022-10-11T06:00:48.395Z,1008.2
2022-10-11T06:01:49.339Z,1008.2
2022-10-11T06:02:50.394Z,1008.3
2022-10-11T06:03:51.357Z,1008.3
2022-10-11T06:04:52.417Z,1008.3
2022-10-11T06:05:56.901Z,1008.4
2022-10-11T06:06:54.392Z,1008.5
2022-10-11T06:07:55.367Z,1008.4
2022-10-11T06:08:56.404Z,1008.4
2022-10-11T06:09:57.363Z,1008.4
2022-10-11T06:10:58.340Z,1008.6
2022-10-11T06:11:59.358Z,1008.5
2022-10-11T06:13:00.417Z,1008.5
2022-10-11T06:14:01.514Z,1008.6
2022-10-11T06:15:03.415Z,1008.6
2022-10-11T06:16:04.642Z,1008.7
2022-10-11T06:17:05.376Z,1008.6
2022-10-11T06:18:06.455Z,1008.6
2022-10-11T06:19:07.425Z,1008.7
2022-10-11T06:20:08.434Z,1008.7
2022-10-11T06:21:09.336Z,1008.7
2022-10-11T06:22:10.376Z,1008.7
2022-10-11T06:23:11.403Z,1008.7
2022-10-11T06:24:12.469Z,1008.7
2022-10-11T06:25:13.376Z,1008.8
2022-10-11T06:26:14.382Z,1008.4
2022-10-11T06:27:16.474Z,1008.7
2022-10-11T06:28:18.449Z,1008.9
2022-10-11T06:29:19.460Z,1008.8
2022-10-11T06:30:20.394Z,1008.8
2022-10-11T06:31:21.436Z,1008.9
2022-10-11T06:32:22.435Z,1008.9
2022-10-11T06:33:23.435Z,1008.9
2022-10-11T06:34:24.442Z,1008.9
2022-10-11T06:35:25.434Z,1008.9
2022-10-11T06:36:26.396Z,1008.9
2022-10-11T06:37:27.404Z,1009
2022-10-11T06:38:28.365Z,1009
2022-10-11T06:39:29.420Z,1009.1
2022-10-11T06:40:30.455Z,1009
2022-10-11T06:41:32.435Z,1009
2022-10-11T06:42:33.326Z,1009
2022-10-11T06:43:34.375Z,1009
2022-10-11T06:44:35.395Z,1009.1
2022-10-11T06:45:36.395Z,1009.1
2022-10-11T06:46:37.436Z,1009.1
2022-10-11T06:47:38.423Z,1009.1
2022-10-11T06:48:39.395Z,1009.1
2022-10-11T06:49:40.414Z,1009.2
2022-10-11T06:50:58.906Z,1009.2
2022-10-11T06:51:42.454Z,1009.2
2022-10-11T06:52:43.394Z,1009.2
2022-10-11T06:53:44.399Z,1009.2
2022-10-11T06:54:45.499Z,1009.3
2022-10-11T06:55:47.354Z,1009.2
2022-10-11T06:56:48.396Z,1009.2
2022-10-11T06:57:49.435Z,1009.2
2022-10-11T06:58:50.438Z,1009.2
2022-10-11T06:59:51.503Z,1009.2
2022-10-11T07:00:52.453Z,1009.2
2022-10-11T07:01:53.360Z,1009.2
2022-10-11T07:02:54.435Z,1009.2
2022-10-11T07:03:55.426Z,1009.2
2022-10-11T07:04:56.423Z,1009.3
2022-10-11T07:06:01.531Z,1009.3
2022-10-11T07:06:58.475Z,1009.3
2022-10-11T07:08:00.457Z,1009.3
2022-10-11T07:09:02.408Z,1009.3
2022-10-11T07:10:03.544Z,1009.4
2022-10-11T07:11:05.447Z,1009.4
2022-10-11T07:12:06.395Z,1009.4
2022-10-11T07:13:07.392Z,1009.3
2022-10-11T07:14:08.387Z,1009.4
2022-10-11T07:15:09.495Z,1009.4
2022-10-11T07:16:11.536Z,1009.4
2022-10-11T07:17:13.422Z,1009.5
2022-10-11T07:18:14.423Z,1009.5
2022-10-11T07:19:15.489Z,1009.5
2022-10-11T07:20:17.576Z,1009.5
2022-10-11T07:21:19.451Z,1009.5
2022-10-11T07:22:20.455Z,1009.5
2022-10-11T07:23:21.461Z,1009.6
2022-10-11T07:24:22.457Z,1009.5
2022-10-11T07:25:23.457Z,1009.6
2022-10-11T07:26:24.523Z,1009.7
2022-10-11T07:27:26.415Z,1009.7
2022-10-11T07:28:27.688Z,1009.7
2022-10-11T07:29:29.402Z,1009.7
2022-10-11T07:30:30.459Z,1009.6
2022-10-11T07:31:31.477Z,1009.6
2022-10-11T07:32:32.415Z,1009.6
2022-10-11T07:33:33.434Z,1009.6
2022-10-11T07:34:34.456Z,1009.6
2022-10-11T07:35:35.471Z,1009.6
2022-10-11T07:36:36.415Z,1009.7
2022-10-11T07:37:37.415Z,1009.7
2022-10-11T07:38:38.455Z,1009.7
2022-10-11T07:39:39.495Z,1009.7
2022-10-11T07:40:40.521Z,1009.7
2022-10-11T07:41:45.760Z,1009.8
2022-10-11T07:42:44.655Z,1009.8
2022-10-11T07:43:46.614Z,1009.8
2022-10-11T07:44:49.774Z,1009.8
2022-10-11T07:45:51.935Z,1009.8
2022-10-11T07:46:53.549Z,1009.8
2022-10-11T07:47:55.543Z,1009.8
2022-10-11T07:48:57.534Z,1009.8
2022-10-11T07:50:00.357Z,1009.8
2022-10-11T07:51:02.577Z,1009.8
2022-10-11T07:52:04.534Z,1009.8
2022-10-11T07:53:06.518Z,1009.9
2022-10-11T07:54:08.533Z,1009.9
2022-10-11T07:55:10.503Z,1009.9
2022-10-11T07:56:12.595Z,1009.9
2022-10-11T07:57:14.534Z,1009.9
2022-10-11T07:58:15.423Z,1009.9
2022-10-11T07:59:16.421Z,1010
2022-10-11T08:00:17.480Z,1010
2022-10-11T08:01:18.541Z,1009.9
2022-10-11T08:02:19.434Z,1010
2022-10-11T08:03:20.456Z,1010
2022-10-11T08:04:21.459Z,1010
2022-10-11T08:05:22.564Z,1010.1
2022-10-11T08:06:24.408Z,1010
2022-10-11T08:07:25.456Z,1010.1
2022-10-11T08:08:26.776Z,1010
2022-10-11T08:09:28.474Z,1010
2022-10-11T08:10:29.474Z,1009.9
2022-10-11T08:11:30.578Z,1009.9
2022-10-11T08:12:32.558Z,1010
2022-10-11T08:13:34.494Z,1009.9
2022-10-11T08:14:35.514Z,1010
2022-10-11T08:15:36.475Z,1010
2022-10-11T08:16:37.514Z,1010.1
2022-10-11T08:17:39.523Z,1010
2022-10-11T08:18:41.497Z,1010
2022-10-11T08:19:42.515Z,1010
2022-10-11T08:20:44.636Z,1010
2022-10-11T08:21:46.497Z,1010
2022-10-11T08:22:48.474Z,1010.1
2022-10-11T08:23:49.427Z,1010.1
2022-10-11T08:24:50.483Z,1010
2022-10-11T08:25:51.455Z,1010
2022-10-11T08:26:52.515Z,1009.3
2022-10-11T08:27:53.483Z,1009.9
2022-10-11T08:28:54.568Z,1010
2022-10-11T08:29:55.511Z,1010
2022-10-11T08:30:56.477Z,1010.1
2022-10-11T08:31:57.415Z,1010.1
2022-10-11T08:32:58.457Z,1010.1
2022-10-11T08:33:59.427Z,1010.2
2022-10-11T08:35:00.533Z,1010.2
2022-10-11T08:36:02.839Z,1010.2
2022-10-11T08:37:03.430Z,1010.2
2022-10-11T08:38:04.509Z,1010.1
2022-10-11T08:39:05.510Z,1010.2
2022-10-11T08:40:06.554Z,1010.2
2022-10-11T08:41:08.537Z,1010.1
2022-10-11T08:42:10.500Z,1010.1
2022-10-11T08:43:12.523Z,1010.1
2022-10-11T08:44:14.603Z,1010.1
2022-10-11T08:45:16.474Z,1010.1
2022-10-11T08:46:17.438Z,1010.1
2022-10-11T08:47:18.455Z,1010.2
2022-10-11T08:48:19.514Z,1010.1
2022-10-11T08:49:20.774Z,1010.1
2022-10-11T08:50:22.524Z,1010.1
2022-10-11T08:51:23.474Z,1010.1
2022-10-11T08:52:24.534Z,1010.2
2022-10-11T08:53:25.540Z,1010.2
2022-10-11T08:54:26.494Z,1010.2
2022-10-11T08:55:27.534Z,1010.2
2022-10-11T08:56:28.502Z,1010.3
2022-10-11T08:57:29.579Z,1010.3
2022-10-11T08:58:31.634Z,1010.3
2022-10-11T08:59:33.554Z,1010.2
2022-10-11T09:00:34.515Z,1010.2
2022-10-11T09:01:35.486Z,1010.3
2022-10-11T09:02:56.047Z,1010.2
2022-10-11T09:03:38.622Z,1010.3
2022-10-11T09:04:40.502Z,1010.3
2022-10-11T09:05:41.474Z,1010.3
2022-10-11T09:06:42.534Z,1010.3
2022-10-11T09:07:44.554Z,1010.3
2022-10-11T09:08:46.675Z,1010.3
2022-10-11T09:09:48.534Z,1010.2
2022-10-11T09:10:49.514Z,1010.3
2022-10-11T09:11:50.555Z,1010.3
2022-10-11T09:12:52.563Z,1010.3
2022-10-11T09:13:53.576Z,1010.4
2022-10-11T09:14:54.516Z,1010.4
2022-10-11T09:15:55.449Z,1010.3
2022-10-11T09:16:56.522Z,1010.3
2022-10-11T09:17:57.538Z,1010.3
2022-10-11T09:18:58.544Z,1010.3
2022-10-11T09:20:00.492Z,1010.3
2022-10-11T09:21:02.534Z,1010.3
2022-10-11T09:22:04.776Z,1010.3
2022-10-11T09:23:06.468Z,1010.3
2022-10-11T09:24:07.523Z,1010.3
2022-10-11T09:25:08.448Z,1010.3
2022-10-11T09:26:09.719Z,1010.3
2022-10-11T09:27:10.463Z,1010.4
2022-10-11T09:28:11.595Z,1010.4
2022-10-11T09:29:12.516Z,1010.3
2022-10-11T09:30:13.562Z,1010.4
2022-10-11T09:31:14.519Z,1010.3
2022-10-11T09:32:15.559Z,1010.4
2022-10-11T09:33:16.575Z,1010.3
2022-10-11T09:34:17.455Z,1010.3
2022-10-11T09:35:18.476Z,1010.3
2022-10-11T09:36:19.463Z,1010.4
2022-10-11T09:37:20.474Z,1010.3
2022-10-11T09:38:22.513Z,1010.3
2022-10-11T09:39:23.539Z,1010.3
2022-10-11T09:40:25.595Z,1010.4
2022-10-11T09:41:27.635Z,1010.4
2022-10-11T09:42:29.501Z,1010.4
2022-10-11T09:43:30.510Z,1010.3
2022-10-11T09:44:31.458Z,1010.4
2022-10-11T09:45:32.525Z,1010.4
2022-10-11T09:46:33.496Z,1010.4
2022-10-11T09:47:34.495Z,1010.4
2022-10-11T09:48:35.594Z,1010.4
2022-10-11T09:49:37.496Z,1010.5
2022-10-11T09:50:38.494Z,1010.5
2022-10-11T09:51:39.515Z,1010.5
2022-10-11T09:52:40.576Z,1010.5
2022-10-11T09:53:42.806Z,1010.4
2022-10-11T09:54:44.574Z,1010.5
2022-10-11T09:55:46.514Z,1010.4
2022-10-11T09:56:48.515Z,1010.5
2022-10-11T09:57:49.482Z,1010.5
2022-10-11T09:58:50.580Z,1010.5
2022-10-11T09:59:51.496Z,1010.4
2022-10-11T10:00:52.595Z,1010.4
2022-10-11T10:01:53.603Z,1010.4
2022-10-11T10:02:54.514Z,1010.3
2022-10-11T10:03:55.516Z,1010.3
2022-10-11T10:04:56.518Z,1010.4
2022-10-11T10:05:57.557Z,1010.3
2022-10-11T10:06:58.579Z,1010.3
2022-10-11T10:08:02.946Z,1010.3
2022-10-11T10:09:00.505Z,1010.3
2022-10-11T10:10:01.575Z,1010.4
2022-10-11T10:11:03.474Z,1010.4
2022-10-11T10:12:04.574Z,1010.5
2022-10-11T10:13:05.555Z,1010.4
2022-10-11T10:14:06.625Z,1010.5
2022-10-11T10:15:07.533Z,1010.5
2022-10-11T10:16:09.048Z,1010.5
2022-10-11T10:17:10.516Z,1010.5
2022-10-11T10:18:11.485Z,1010.5
2022-10-11T10:19:13.622Z,1010.5
2022-10-11T10:20:15.591Z,1010.5
2022-10-11T10:21:17.554Z,1010.5
2022-10-11T10:22:19.578Z,1010.5
2022-10-11T10:23:21.572Z,1010.5
2022-10-11T10:24:23.635Z,1010.6
2022-10-11T10:25:25.581Z,1010.6
2022-10-11T10:26:26.574Z,1010.5
2022-10-11T10:27:27.543Z,1010.5
2022-10-11T10:28:28.641Z,1010.6
2022-10-11T10:29:29.518Z,1010.6
2022-10-11T10:30:34.614Z,1010.6
2022-10-11T10:31:40.249Z,1010.6
2022-10-11T10:32:34.514Z,1010.6
2022-10-11T10:33:35.575Z,1010.6
2022-10-11T10:34:36.602Z,1010.7
2022-10-11T10:35:38.635Z,1010.7
2022-10-11T10:36:40.583Z,1010.6
2022-10-11T10:37:41.498Z,1010.5
2022-10-11T10:38:42.517Z,1010.6
2022-10-11T10:39:43.523Z,1010.6
2022-10-11T10:40:44.585Z,1010.7
2022-10-11T10:41:45.531Z,1010.6
2022-10-11T10:42:46.642Z,1010.6
2022-10-11T10:43:47.535Z,1010.5
2022-10-11T10:44:48.520Z,1010.6
2022-10-11T10:45:49.535Z,1010.6
2022-10-11T10:46:50.555Z,1010.6
2022-10-11T10:47:51.554Z,1010.6
2022-10-11T10:49:55.164Z,1010.6
2022-10-11T10:50:55.505Z,1010.6
2022-10-11T10:51:56.574Z,1010.6
2022-10-11T10:52:57.535Z,1010.7
2022-10-11T10:53:58.612Z,1010.7
2022-10-11T10:55:00.620Z,1010.7
2022-10-11T10:56:02.882Z,1010.7
2022-10-11T10:57:04.636Z,1010.6
2022-10-11T10:58:06.556Z,1010.5
2022-10-11T10:59:07.614Z,1010.5
2022-10-11T11:00:08.690Z,1010.5
2022-10-11T11:01:10.575Z,1010.6
2022-10-11T11:02:35.278Z,1010.5
2022-10-11T11:03:13.557Z,1010.6
2022-10-11T11:04:14.555Z,1010.6
2022-10-11T11:05:15.578Z,1010.6
2022-10-11T11:06:16.598Z,1010.7
2022-10-11T11:07:18.915Z,1010.6
2022-10-11T11:08:20.595Z,1010.6
2022-10-11T11:09:22.542Z,1010.6
2022-10-11T11:10:23.615Z,1010.6
2022-10-11T11:11:24.595Z,1010.6
2022-10-11T11:12:25.542Z,1010.6
2022-10-11T11:13:26.595Z,1010.5
2022-10-11T11:14:27.502Z,1010.5
2022-10-11T11:15:32.426Z,1010.5
2022-10-11T11:16:30.575Z,1010.5
2022-10-11T11:17:31.575Z,1009.8
2022-10-11T11:18:33.594Z,1010.3
2022-10-11T11:19:35.594Z,1010.4
2022-10-11T11:20:36.554Z,1010.4
2022-10-11T11:21:41.319Z,1010.5
2022-10-11T11:22:38.475Z,1010.5
2022-10-11T11:23:39.505Z,1010.5
2022-10-11T11:24:40.555Z,1010.6
2022-10-11T11:25:44.799Z,1010.5
2022-10-11T11:26:44.364Z,1010.6
2022-10-11T11:27:43.473Z,1010.5
2022-10-11T11:28:44.613Z,1010.5
2022-10-11T11:29:45.575Z,1010.5
2022-10-11T11:30:47.599Z,1010.6
2022-10-11T11:31:49.535Z,1010.5
2022-10-11T11:32:50.637Z,1010.5
2022-10-11T11:33:51.542Z,1010.5
2022-10-11T11:34:52.545Z,1010.4
2022-10-11T11:35:53.575Z,1010.5
2022-10-11T11:36:54.585Z,1010.5
2022-10-11T11:38:00.290Z,1010.5
2022-10-11T11:38:57.142Z,1010.5
2022-10-11T11:39:58.595Z,1010.4
2022-10-11T11:40:59.595Z,1010.5
2022-10-11T11:42:00.584Z,1010.5
2022-10-11T11:43:01.635Z,1010.4
2022-10-11T11:44:02.634Z,1010.4
2022-10-11T11:45:03.596Z,1010.4
2022-10-11T11:46:04.539Z,1010.4
2022-10-11T11:47:05.548Z,1010.4
2022-10-11T11:48:06.554Z,1010.5
2022-10-11T11:49:10.837Z,1010.4
2022-10-11T11:50:09.603Z,1010.5
2022-10-11T11:51:10.615Z,1010.5
2022-10-11T11:52:11.596Z,1010.5
2022-10-11T11:53:12.642Z,1010.4
2022-10-11T11:54:14.614Z,1010.4
2022-10-11T11:55:15.616Z,1010.4
2022-10-11T11:56:16.558Z,1010.4
2022-10-11T11:57:18.037Z,1010.5
2022-10-11T11:58:19.557Z,1009.8
2022-10-11T11:59:20.635Z,1010.3
2022-10-11T12:00:21.635Z,1010.4
2022-10-11T12:01:23.473Z,1010.4
2022-10-11T12:02:24.787Z,1010.5
2022-10-11T12:03:26.544Z,1010.4
2022-10-11T12:04:27.535Z,1010.5
2022-10-11T12:05:28.597Z,1010.4
2022-10-11T12:06:29.622Z,1010.4
2022-10-11T12:07:30.602Z,1010.4
2022-10-11T12:08:31.595Z,1010.4
2022-10-11T12:09:32.576Z,1010.4
2022-10-11T12:10:33.694Z,1010.4
2022-10-11T12:11:35.645Z,1010.5
2022-10-11T12:12:36.498Z,1010.4
2022-10-11T12:13:37.557Z,1010.4
2022-10-11T12:14:38.553Z,1010.4
2022-10-11T12:15:39.594Z,1010.4
2022-10-11T12:16:43.090Z,1010.4
2022-10-11T12:17:44.644Z,1010.4
2022-10-11T12:18:45.627Z,1010.5
2022-10-11T12:19:46.595Z,1010.4
2022-10-11T12:20:48.575Z,1010.4
2022-10-11T12:21:49.616Z,1010.4
2022-10-11T12:22:50.594Z,1010.4
2022-10-11T12:23:51.555Z,1010.4
2022-10-11T12:24:52.575Z,1010.4
2022-10-11T12:25:53.596Z,1010.4
2022-10-11T12:26:54.545Z,1010.4
2022-10-11T12:27:55.694Z,1010.5
2022-10-11T12:28:56.636Z,1010.4
2022-10-11T12:29:57.563Z,1010.4
2022-10-11T12:30:58.624Z,1010.4
2022-10-11T12:31:59.639Z,1010.4
2022-10-11T12:33:00.604Z,1010.4
2022-10-11T12:34:01.635Z,1010.4
2022-10-11T12:35:02.595Z,1010.4
2022-10-11T12:36:05.528Z,1010.4
2022-10-11T12:37:06.749Z,1010.4
2022-10-11T12:38:05.656Z,1010.5
2022-10-11T12:39:06.634Z,1010.5
2022-10-11T12:40:07.635Z,1010.4
2022-10-11T12:41:08.656Z,1010.4
2022-10-11T12:42:09.615Z,1010.4
2022-10-11T12:43:10.638Z,1010.4
2022-10-11T12:44:11.579Z,1010.4
2022-10-11T12:45:12.694Z,1010.4
2022-10-11T12:46:14.635Z,1010.4
2022-10-11T12:47:15.737Z,1010.4
2022-10-11T12:48:17.635Z,1010.4
2022-10-11T12:49:19.614Z,1010.3
2022-10-11T12:50:20.715Z,1010.3
2022-10-11T12:51:22.695Z,1010.4
2022-10-11T12:52:24.675Z,1010.4
2022-10-11T12:53:25.614Z,1010.4